createdAt,value
2022-10-04T00:01:09.266Z,100.00
2022-10-04T00:06:33.696Z,100.00
2022-10-04T00:12:00.573Z,100.00
2022-10-04T00:17:28.087Z,100.00
2022-10-04T00:23:25.241Z,100.00
2022-10-04T00:28:51.546Z,100.00
2022-10-04T00:34:47.280Z,100.00
2022-10-04T00:40:16.718Z,100.00
2022-10-04T00:45:45.963Z,100.00
2022-10-04T00:51:20.452Z,100.00
2022-10-04T00:56:49.749Z,100.00
2022-10-04T01:02:19.828Z,100.00
2022-10-04T01:07:48.219Z,100.00
2022-10-04T01:13:17.228Z,100.00
2022-10-04T01:18:43.056Z,100.00
2022-10-04T01:24:22.858Z,100.00
2022-10-04T01:29:51.697Z,100.00
2022-10-04T01:35:18.880Z,100.00
2022-10-04T01:40:49.725Z,100.00
2022-10-04T01:46:20.179Z,100.00
2022-10-04T01:51:56.506Z,100.00
2022-10-04T01:57:31.588Z,100.00
2022-10-04T02:03:01.849Z,100.00
2022-10-04T02:08:30.437Z,100.00
2022-10-04T02:13:56.854Z,100.00
2022-10-04T02:19:28.210Z,100.00
2022-10-04T02:24:58.869Z,100.00
2022-10-04T02:30:25.339Z,100.00
2022-10-04T02:35:50.427Z,100.00
2022-10-04T02:41:25.945Z,100.00
2022-10-04T02:46:57.248Z,100.00
2022-10-04T02:52:28.213Z,100.00
2022-10-04T02:57:52.661Z,100.00
2022-10-04T03:03:24.234Z,100.00
2022-10-04T03:08:52.836Z,100.00
2022-10-04T03:14:20.998Z,100.00
2022-10-04T03:19:50.044Z,100.00
2022-10-04T03:25:18.315Z,100.00
2022-10-04T03:30:45.469Z,100.00
2022-10-04T03:36:16.742Z,100.00
2022-10-04T03:41:42.196Z,100.00
2022-10-04T03:47:11.167Z,100.00
2022-10-04T03:52:38.789Z,100.00
2022-10-04T03:58:03.907Z,100.00
2022-10-04T04:03:35.918Z,100.00
2022-10-04T04:09:02.790Z,100.00
2022-10-04T04:14:29.108Z,100.00
2022-10-04T04:19:54.417Z,100.00
2022-10-04T04:25:23.614Z,100.00
2022-10-04T04:30:53.057Z,100.00
2022-10-04T04:36:18.551Z,100.00
2022-10-04T04:41:49.541Z,100.00
2022-10-04T04:47:27.303Z,100.00
2022-10-04T04:53:00.172Z,100.00
2022-10-04T04:58:33.004Z,100.00
2022-10-04T05:04:05.295Z,100.00
2022-10-04T05:09:34.489Z,100.00
2022-10-04T05:15:02.817Z,100.00
2022-10-04T05:20:28.720Z,100.00
2022-10-04T05:25:52.758Z,96.76
2022-10-04T05:31:37.029Z,100.00
2022-10-04T05:37:23.632Z,100.00
2022-10-04T05:42:48.145Z,100.00
2022-10-04T05:48:15.309Z,100.00
2022-10-04T05:53:44.245Z,100.00
2022-10-04T05:59:17.649Z,100.00
2022-10-04T06:05:00.716Z,100.00
2022-10-04T06:10:51.195Z,100.00
2022-10-04T06:16:21.229Z,99.57
2022-10-04T06:22:06.724Z,90.18
2022-10-04T06:27:41.658Z,91.45
2022-10-04T06:33:30.131Z,82.73
2022-10-04T06:39:19.236Z,76.54
2022-10-04T06:45:00.727Z,74.38
2022-10-04T06:50:34.292Z,77.07
2022-10-04T06:56:33.776Z,73.44
2022-10-04T07:02:01.570Z,70.08
2022-10-04T07:07:38.080Z,71.81
2022-10-04T07:13:16.563Z,72.63
2022-10-04T07:18:48.389Z,84.30
2022-10-04T07:24:20.069Z,94.65
2022-10-04T07:29:47.916Z,92.75
2022-10-04T07:35:34.774Z,84.61
2022-10-04T07:41:10.508Z,81.82
2022-10-04T07:46:53.863Z,71.52
2022-10-04T07:52:42.949Z,88.78
2022-10-04T07:58:19.961Z,90.55
2022-10-04T08:04:00.313Z,87.58
2022-10-04T08:09:38.778Z,79.55
2022-10-04T08:15:26.768Z,76.03
2022-10-04T08:20:59.682Z,84.38
2022-10-04T08:26:55.858Z,81.59
2022-10-04T08:33:01.761Z,68.79
2022-10-04T08:38:45.110Z,60.35
2022-10-04T08:45:07.960Z,61.37
2022-10-04T08:51:02.678Z,54.65
2022-10-04T08:56:45.481Z,49.65
2022-10-04T09:02:48.000Z,52.46
2022-10-04T09:08:51.069Z,51.11
2022-10-04T09:14:46.393Z,53.56
2022-10-04T09:20:39.389Z,52.75
2022-10-04T09:26:21.074Z,50.85
2022-10-04T09:32:16.946Z,51.37
2022-10-04T09:37:59.033Z,47.05
2022-10-04T09:43:56.146Z,45.75
2022-10-04T09:49:47.954Z,51.46
2022-10-04T09:55:29.922Z,50.34
2022-10-04T10:01:03.372Z,50.77
2022-10-04T10:06:49.762Z,53.05
2022-10-04T10:12:55.635Z,55.37
2022-10-04T10:18:31.640Z,52.58
2022-10-04T10:24:27.812Z,51.66
2022-10-04T10:30:21.301Z,54.49
2022-10-04T10:36:04.318Z,55.51
2022-10-04T10:41:55.047Z,55.04
2022-10-04T10:47:35.553Z,54.07
2022-10-04T10:53:46.170Z,51.88
2022-10-04T10:59:38.800Z,49.59
2022-10-04T11:05:25.103Z,46.78
2022-10-04T11:11:07.901Z,46.50
2022-10-04T11:16:52.903Z,48.96
2022-10-04T11:23:00.174Z,51.53
2022-10-04T11:28:32.623Z,51.77
2022-10-04T11:34:37.908Z,54.71
2022-10-04T11:40:12.223Z,55.14
2022-10-04T11:45:57.244Z,53.75
2022-10-04T11:52:13.215Z,55.46
2022-10-04T11:57:44.463Z,55.70
2022-10-04T12:03:46.532Z,54.99
2022-10-04T12:09:20.715Z,52.57
2022-10-04T12:15:08.616Z,52.86
2022-10-04T12:20:59.677Z,53.75
2022-10-04T12:26:48.366Z,53.25
2022-10-04T12:32:16.481Z,53.22
2022-10-04T12:38:05.997Z,52.45
2022-10-04T12:43:38.656Z,55.90
2022-10-04T12:49:11.915Z,57.20
2022-10-04T12:54:40.339Z,55.45
2022-10-04T13:00:17.512Z,55.87
2022-10-04T13:05:51.889Z,57.11
2022-10-04T13:11:34.113Z,57.76
2022-10-04T13:17:30.827Z,59.82
2022-10-04T13:22:58.036Z,61.32
2022-10-04T13:28:31.978Z,61.94
2022-10-04T13:34:07.811Z,63.23
2022-10-04T13:39:52.382Z,66.42
2022-10-04T13:45:32.077Z,65.29
2022-10-04T13:51:15.565Z,64.49
2022-10-04T13:56:58.537Z,65.84
2022-10-04T14:02:53.328Z,68.74
2022-10-04T14:08:52.085Z,69.83
2022-10-04T14:14:54.168Z,70.62
2022-10-04T14:21:01.499Z,71.10
2022-10-04T14:26:54.813Z,73.20
2022-10-04T14:32:40.402Z,74.92
2022-10-04T14:38:31.785Z,75.90
2022-10-04T14:44:31.541Z,75.52
2022-10-04T14:50:09.630Z,78.53
2022-10-04T14:55:53.957Z,80.29
2022-10-04T15:01:23.530Z,81.56
2022-10-04T15:06:51.706Z,81.45
2022-10-04T15:12:58.106Z,80.92
2022-10-04T15:18:32.083Z,80.49
2022-10-04T15:24:01.427Z,81.41
2022-10-04T15:29:30.076Z,77.96
2022-10-04T15:35:12.302Z,78.06
2022-10-04T15:40:43.201Z,78.23
2022-10-04T15:46:34.119Z,78.22
2022-10-04T15:52:52.152Z,80.03
2022-10-04T15:58:58.743Z,80.75
2022-10-04T16:04:42.939Z,83.57
2022-10-04T16:10:20.181Z,83.75
2022-10-04T16:15:49.520Z,84.72
2022-10-04T16:21:26.548Z,86.44
2022-10-04T16:27:20.884Z,87.97
2022-10-04T16:33:05.154Z,88.93
2022-10-04T16:38:35.831Z,91.26
2022-10-04T16:44:03.940Z,92.78
2022-10-04T16:49:41.032Z,93.06
2022-10-04T16:55:31.726Z,94.39
2022-10-04T17:01:30.113Z,93.97
2022-10-04T17:06:58.609Z,94.88
2022-10-04T17:12:28.939Z,94.10
2022-10-04T17:18:00.435Z,94.17
2022-10-04T17:24:00.215Z,93.30
2022-10-04T17:29:43.455Z,91.15
2022-10-04T17:35:22.091Z,90.88
2022-10-04T17:40:59.285Z,90.22
2022-10-04T17:46:33.524Z,89.68
2022-10-04T17:52:21.039Z,89.68
2022-10-04T17:57:57.012Z,87.71
2022-10-04T18:03:26.368Z,87.19
2022-10-04T18:08:55.569Z,85.72
2022-10-04T18:14:39.955Z,85.43
2022-10-04T18:20:28.182Z,86.28
2022-10-04T18:25:58.395Z,89.00
2022-10-04T18:31:33.909Z,92.69
2022-10-04T18:37:06.921Z,95.12
2022-10-04T18:42:37.222Z,96.71
2022-10-04T18:48:14.742Z,96.59
2022-10-04T18:53:44.516Z,97.54
2022-10-04T18:59:39.472Z,98.89
2022-10-04T19:05:14.205Z,98.03
2022-10-04T19:10:44.691Z,96.97
2022-10-04T19:16:25.587Z,95.08
2022-10-04T19:21:59.930Z,93.65
2022-10-04T19:27:28.726Z,93.72
2022-10-04T19:33:03.485Z,93.91
2022-10-04T19:38:40.532Z,92.90
2022-10-04T19:44:23.257Z,93.58
2022-10-04T19:49:57.934Z,94.64
2022-10-04T19:55:28.437Z,94.55
2022-10-04T20:00:52.644Z,93.37
2022-10-04T20:06:22.618Z,92.56
2022-10-04T20:11:52.071Z,93.06
2022-10-04T20:17:33.991Z,93.92
2022-10-04T20:22:58.704Z,93.62
2022-10-04T20:28:43.645Z,95.38
2022-10-04T20:34:35.401Z,96.52
2022-10-04T20:40:00.421Z,97.88
2022-10-04T20:45:30.436Z,99.21
2022-10-04T20:50:55.863Z,99.48
2022-10-04T20:56:29.222Z,100.00
2022-10-04T21:02:05.171Z,100.00
2022-10-04T21:07:31.001Z,100.00
2022-10-04T21:12:55.517Z,100.00
2022-10-04T21:18:25.140Z,100.00
2022-10-04T21:23:49.988Z,100.00
2022-10-04T21:29:14.923Z,100.00
2022-10-04T21:34:52.906Z,100.00
2022-10-04T21:40:18.897Z,100.00
2022-10-04T21:45:43.060Z,100.00
2022-10-04T21:51:12.689Z,100.00
2022-10-04T21:56:37.546Z,100.00
2022-10-04T22:02:01.758Z,100.00
2022-10-04T22:07:27.346Z,100.00
2022-10-04T22:12:56.765Z,100.00
2022-10-04T22:18:21.033Z,100.00
2022-10-04T22:23:47.438Z,100.00
2022-10-04T22:29:14.859Z,100.00
2022-10-04T22:34:39.862Z,100.00
2022-10-04T22:40:08.095Z,100.00
2022-10-04T22:45:33.698Z,100.00
2022-10-04T22:50:59.083Z,100.00
2022-10-04T22:56:26.097Z,100.00
2022-10-04T23:01:50.520Z,100.00
2022-10-04T23:07:15.201Z,100.00
2022-10-04T23:12:41.282Z,100.00
2022-10-04T23:18:15.512Z,100.00
2022-10-04T23:23:39.467Z,100.00
2022-10-04T23:29:07.686Z,100.00
2022-10-04T23:34:35.377Z,100.00
2022-10-04T23:40:00.085Z,100.00
2022-10-04T23:45:27.939Z,100.00
2022-10-04T23:50:55.093Z,100.00
2022-10-04T23:56:23.016Z,100.00
